Time;durP1;ratioP1;P1;durP2;ratioP2;P2;SDS_P1;SDS_P2;PMS_P1;PMS_P2;Temp;Humidity;BMP_temperature;BMP_pressure;BME280_temperature;BME280_humidity;BME280_pressure;Samples;Min_cycle;Max_cycle;Signal;HPM_P1;HPM_P2
2022/12/10 00:01:13;;;;;;;15.10;13.38;;;;;;;;;;5046259;28;20042;-77
2022/12/10 00:03:38;;;;;;;14.73;10.63;;;;;;;;;;4999127;28;20030;-77
2022/12/10 00:06:17;;;;;;;16.13;11.45;;;;;;;;;;4992649;28;20030;-77
2022/12/10 00:08:45;;;;;;;14.98;12.07;;;;;;;;;;4989713;28;20536;-77
2022/12/10 00:11:12;;;;;;;15.88;12.20;;;;;;;;;;4992336;28;20040;-77
2022/12/10 00:13:40;;;;;;;14.80;12.43;;;;;;;;;;4992175;28;20404;-77
2022/12/10 00:16:10;;;;;;;18.02;12.07;;;;;;;;;;4996655;28;20384;-77
2022/12/10 00:18:41;;;;;;;17.80;12.82;;;;;;;;;;4992168;28;20045;-77
2022/12/10 00:21:10;;;;;;;15.02;10.75;;;;;;;;;;4994962;28;20033;-77
2022/12/10 00:23:37;;;;;;;20.45;12.52;;;;;;;;;;4996341;28;20039;-77
2022/12/10 00:26:03;;;;;;;14.70;12.73;;;;;;;;;;5000100;28;20492;-77
2022/12/10 00:28:33;;;;;;;18.70;11.38;;;;;;;;;;4989467;28;20027;-76
2022/12/10 00:31:08;;;;;;;13.52;10.90;;;;;;;;;;5004750;28;20029;-77
2022/12/10 00:33:36;;;;;;;12.60;11.20;;;;;;;;;;5039083;28;20022;-76
2022/12/10 00:36:10;;;;;;;18.10;13.07;;;;;;;;;;5007940;28;20028;-76
2022/12/10 00:38:40;;;;;;;16.25;13.90;;;;;;;;;;4986910;28;20038;-77
2022/12/10 00:41:08;;;;;;;12.98;10.70;;;;;;;;;;5003103;28;20035;-76
2022/12/10 00:43:34;;;;;;;14.80;12.40;;;;;;;;;;5017315;28;20038;-76
2022/12/10 00:46:03;;;;;;;19.73;12.60;;;;;;;;;;5024177;28;20042;-76
2022/12/10 00:48:36;;;;;;;18.23;13.05;;;;;;;;;;5008611;28;20026;-76
2022/12/10 00:51:11;;;;;;;17.90;13.88;;;;;;;;;;4983637;28;20030;-76
2022/12/10 00:53:42;;;;;;;13.75;10.90;;;;;;;;;;4991932;28;20027;-77
2022/12/10 00:56:13;;;;;;;17.63;14.38;;;;;;;;;;4989481;28;20030;-76
2022/12/10 00:58:40;;;;;;;19.80;13.35;;;;;;;;;;4991443;28;21492;-77
2022/12/10 01:01:14;;;;;;;14.32;11.13;;;;;;;;;;4990659;28;20027;-76
2022/12/10 01:03:40;;;;;;;15.05;11.90;;;;;;;;;;4992046;28;20027;-76
2022/12/10 01:06:21;;;;;;;16.10;13.00;;;;;;;;;;4988891;28;20041;-74
2022/12/10 01:08:47;;;;;;;15.15;11.30;;;;;;;;;;5013425;23;20411;-72
2022/12/10 01:11:15;;;;;;;16.27;13.15;;;;;;;;;;5011000;28;20575;-72
2022/12/10 01:13:44;;;;;;;16.38;12.95;;;;;;;;;;4980300;28;20037;-73
2022/12/10 01:16:11;;;;;;;16.83;13.30;;;;;;;;;;5007658;28;20026;-73
2022/12/10 01:18:39;;;;;;;15.00;13.45;;;;;;;;;;5009420;28;20025;-73
2022/12/10 01:21:07;;;;;;;16.65;12.73;;;;;;;;;;4988902;28;20026;-73
2022/12/10 01:23:37;;;;;;;17.02;12.18;;;;;;;;;;5006437;28;20523;-73
2022/12/10 01:26:07;;;;;;;14.88;12.32;;;;;;;;;;5002938;28;20052;-73
2022/12/10 01:28:37;;;;;;;17.52;12.80;;;;;;;;;;5012415;28;20029;-73
2022/12/10 01:31:05;;;;;;;18.35;11.82;;;;;;;;;;5018847;28;20523;-73
2022/12/10 01:33:31;;;;;;;13.05;10.90;;;;;;;;;;5010343;28;20025;-73
2022/12/10 01:36:09;;;;;;;19.35;13.95;;;;;;;;;;5005382;28;20049;-72
2022/12/10 01:38:35;;;;;;;20.33;12.23;;;;;;;;;;4997698;28;20037;-72
2022/12/10 01:41:04;;;;;;;15.93;13.85;;;;;;;;;;4990795;28;20025;-73
2022/12/10 01:43:50;;;;;;;14.23;11.93;;;;;;;;;;5009840;28;20038;-73
2022/12/10 01:46:16;;;;;;;16.50;12.57;;;;;;;;;;5012593;28;20033;-73
2022/12/10 01:48:42;;;;;;;17.55;11.93;;;;;;;;;;5009262;28;20100;-73
2022/12/10 01:51:11;;;;;;;19.45;12.65;;;;;;;;;;5005891;28;20034;-73
2022/12/10 01:53:42;;;;;;;16.35;13.30;;;;;;;;;;5008406;28;20026;-73
2022/12/10 01:56:11;;;;;;;14.70;13.00;;;;;;;;;;5007876;28;20046;-73
2022/12/10 01:58:38;;;;;;;16.08;11.75;;;;;;;;;;5011705;28;20030;-73
2022/12/10 02:01:07;;;;;;;13.90;10.98;;;;;;;;;;5005805;28;20473;-73
2022/12/10 02:03:40;;;;;;;19.73;12.55;;;;;;;;;;5009057;28;20400;-73
2022/12/10 02:06:20;;;;;;;14.60;12.10;;;;;;;;;;5009742;28;20034;-73
2022/12/10 02:08:55;;;;;;;15.55;11.13;;;;;;;;;;5000715;28;20034;-73
2022/12/10 02:11:28;;;;;;;12.88;9.95;;;;;;;;;;5009477;28;20037;-73
2022/12/10 02:14:05;;;;;;;18.08;12.45;;;;;;;;;;4998633;28;20038;-74
2022/12/10 02:16:37;;;;;;;16.80;12.02;;;;;;;;;;5004029;28;20029;-73
2022/12/10 02:19:15;;;;;;;16.25;13.98;;;;;;;;;;5001271;28;20022;-73
2022/12/10 02:21:41;;;;;;;12.73;11.18;;;;;;;;;;5003571;28;20029;-73
2022/12/10 02:24:11;;;;;;;12.65;9.23;;;;;;;;;;5008578;28;20049;-73
2022/12/10 02:27:20;;;;;;;13.48;11.50;;;;;;;;;;5000548;28;20029;-73
2022/12/10 02:29:47;;;;;;;15.85;11.68;;;;;;;;;;5004333;28;20058;-73
2022/12/10 02:32:17;;;;;;;14.52;11.55;;;;;;;;;;4967891;28;20022;-73
2022/12/10 02:34:49;;;;;;;17.23;14.10;;;;;;;;;;4990673;28;20042;-73
2022/12/10 02:37:22;;;;;;;14.55;11.23;;;;;;;;;;5021049;28;20033;-73
2022/12/10 02:40:01;;;;;;;15.55;12.02;;;;;;;;;;5016175;28;20463;-73
2022/12/10 02:42:35;;;;;;;18.48;13.45;;;;;;;;;;5006895;28;20496;-73
2022/12/10 02:45:04;;;;;;;16.38;11.18;;;;;;;;;;5001979;28;20029;-73
2022/12/10 02:47:31;;;;;;;13.02;10.88;;;;;;;;;;4999766;28;20033;-73
2022/12/10 02:49:58;;;;;;;16.65;12.18;;;;;;;;;;5006814;28;20030;-73
2022/12/10 02:52:29;;;;;;;15.18;12.85;;;;;;;;;;5010909;28;20034;-73
2022/12/10 02:54:55;;;;;;;17.60;11.85;;;;;;;;;;5004678;28;20041;-73
2022/12/10 02:57:35;;;;;;;19.95;13.98;;;;;;;;;;5013805;28;20037;-73
2022/12/10 03:00:07;;;;;;;16.88;12.63;;;;;;;;;;5008233;28;20041;-74
2022/12/10 03:02:47;;;;;;;16.45;12.63;;;;;;;;;;5005499;28;20488;-73
2022/12/10 03:05:20;;;;;;;16.13;11.77;;;;;;;;;;4997952;28;20034;-73
2022/12/10 03:08:01;;;;;;;15.73;10.95;;;;;;;;;;5021249;28;20038;-73
2022/12/10 03:10:29;;;;;;;17.52;12.07;;;;;;;;;;5003578;28;20038;-73
2022/12/10 03:12:59;;;;;;;15.60;11.38;;;;;;;;;;5001191;28;20058;-73
2022/12/10 03:15:29;;;;;;;14.82;13.00;;;;;;;;;;5003697;28;20480;-73
2022/12/10 03:18:02;;;;;;;14.43;11.90;;;;;;;;;;5024501;28;20018;-73
2022/12/10 03:20:34;;;;;;;13.65;10.40;;;;;;;;;;5021624;28;20033;-73
2022/12/10 03:23:03;;;;;;;13.57;11.93;;;;;;;;;;5009656;28;20397;-73
2022/12/10 03:25:34;;;;;;;18.40;11.25;;;;;;;;;;5002914;28;20034;-73
2022/12/10 03:28:00;;;;;;;13.68;11.18;;;;;;;;;;5000610;28;20030;-73
2022/12/10 03:30:27;;;;;;;18.20;13.63;;;;;;;;;;5003580;28;20034;-73
2022/12/10 03:32:53;;;;;;;19.70;13.27;;;;;;;;;;4992482;28;20032;-73
2022/12/10 03:35:20;;;;;;;17.00;12.07;;;;;;;;;;4990913;28;20033;-73
2022/12/10 03:37:49;;;;;;;21.52;13.32;;;;;;;;;;5005743;28;20057;-73
2022/12/10 03:40:17;;;;;;;18.35;13.77;;;;;;;;;;5010144;28;20026;-73
2022/12/10 03:42:48;;;;;;;18.85;12.25;;;;;;;;;;5009430;28;20025;-73
2022/12/10 03:45:19;;;;;;;13.98;11.57;;;;;;;;;;5004540;28;20041;-73
2022/12/10 03:47:45;;;;;;;19.15;13.82;;;;;;;;;;5009501;28;20030;-73
2022/12/10 03:50:11;;;;;;;13.45;10.35;;;;;;;;;;5009715;28;20038;-73
2022/12/10 03:52:41;;;;;;;18.42;11.93;;;;;;;;;;5012711;28;20025;-73
2022/12/10 03:55:10;;;;;;;16.35;14.27;;;;;;;;;;5022922;28;20065;-73
2022/12/10 03:57:36;;;;;;;17.15;12.23;;;;;;;;;;5006729;28;20034;-74
2022/12/10 04:00:03;;;;;;;17.50;13.10;;;;;;;;;;5012032;28;20060;-73
2022/12/10 04:02:43;;;;;;;16.85;12.57;;;;;;;;;;5013202;28;20026;-73
2022/12/10 04:05:12;;;;;;;14.73;12.13;;;;;;;;;;5016319;28;20049;-74
2022/12/10 04:07:37;;;;;;;16.10;12.27;;;;;;;;;;5007291;28;20677;-74
2022/12/10 04:10:04;;;;;;;13.25;11.38;;;;;;;;;;5010312;28;20046;-74
2022/12/10 04:12:29;;;;;;;16.95;11.55;;;;;;;;;;5007394;28;20030;-73
2022/12/10 04:17:42;;;;;;;20.60;13.98;;;;;;;;;;5005309;28;20062;-73
2022/12/10 04:26:51;;;;;;;16.23;11.10;;;;;;;;;;5003847;28;20033;-73
2022/12/10 04:28:25;;;;;;;19.60;13.00;;;;;;;;;;5004572;28;20030;-73
2022/12/10 04:30:53;;;;;;;17.73;13.20;;;;;;;;;;5009260;28;20030;-73
2022/12/10 04:33:19;;;;;;;19.05;12.35;;;;;;;;;;5013305;28;20028;-73
2022/12/10 04:35:45;;;;;;;14.75;13.18;;;;;;;;;;5008646;28;20049;-73
2022/12/10 04:38:12;;;;;;;18.60;13.77;;;;;;;;;;5005096;28;20033;-73
2022/12/10 04:40:40;;;;;;;15.85;12.90;;;;;;;;;;5002594;28;20034;-73
2022/12/10 04:43:07;;;;;;;15.00;12.07;;;;;;;;;;5007879;28;20515;-73
2022/12/10 04:45:35;;;;;;;15.18;11.68;;;;;;;;;;5014838;28;20038;-73
2022/12/10 04:48:03;;;;;;;15.35;12.15;;;;;;;;;;5002023;28;20541;-73
2022/12/10 04:50:32;;;;;;;19.33;13.68;;;;;;;;;;5006967;28;20400;-73
2022/12/10 04:52:58;;;;;;;20.20;13.90;;;;;;;;;;5000790;28;20032;-73
2022/12/10 04:55:26;;;;;;;14.77;11.85;;;;;;;;;;5003253;28;20069;-73
2022/12/10 04:57:57;;;;;;;15.02;11.40;;;;;;;;;;5011318;28;20488;-73
2022/12/10 05:00:28;;;;;;;15.35;13.20;;;;;;;;;;5005358;28;20420;-73
2022/12/10 05:02:56;;;;;;;16.67;12.57;;;;;;;;;;5008618;28;20408;-73
2022/12/10 05:05:22;;;;;;;20.42;15.13;;;;;;;;;;5006085;28;20515;-74
2022/12/10 05:07:48;;;;;;;17.38;13.55;;;;;;;;;;5002600;28;20030;-73
2022/12/10 05:10:13;;;;;;;18.95;14.18;;;;;;;;;;5009252;28;20026;-73
2022/12/10 05:12:42;;;;;;;13.95;11.93;;;;;;;;;;5015482;28;20033;-73
2022/12/10 05:15:08;;;;;;;15.18;13.70;;;;;;;;;;4996954;28;20030;-73
2022/12/10 05:17:36;;;;;;;18.02;13.27;;;;;;;;;;4997671;28;20039;-73
2022/12/10 05:20:04;;;;;;;16.25;12.32;;;;;;;;;;5006880;28;20034;-73
2022/12/10 05:25:21;;;;;;;17.27;13.10;;;;;;;;;;5008482;28;20491;-73
2022/12/10 05:27:50;;;;;;;15.27;11.65;;;;;;;;;;5017056;28;20037;-73
2022/12/10 05:30:16;;;;;;;15.77;12.55;;;;;;;;;;4990866;28;20042;-73
2022/12/10 05:32:41;;;;;;;17.80;13.27;;;;;;;;;;5003688;28;20037;-73
2022/12/10 05:35:07;;;;;;;17.55;13.77;;;;;;;;;;5009137;28;20092;-73
2022/12/10 05:37:33;;;;;;;15.68;11.65;;;;;;;;;;5010608;28;20103;-73
2022/12/10 05:39:59;;;;;;;18.70;12.15;;;;;;;;;;5000152;28;20037;-73
2022/12/10 05:42:25;;;;;;;22.15;12.88;;;;;;;;;;5005071;28;20444;-74
2022/12/10 05:44:53;;;;;;;13.30;10.38;;;;;;;;;;5008585;28;20129;-73
2022/12/10 05:47:21;;;;;;;15.18;11.40;;;;;;;;;;5004262;28;20030;-73
2022/12/10 05:49:47;;;;;;;14.63;11.70;;;;;;;;;;4992689;28;20030;-74
2022/12/10 05:52:18;;;;;;;12.75;11.45;;;;;;;;;;4998678;28;20030;-74
2022/12/10 05:54:43;;;;;;;18.42;13.15;;;;;;;;;;5006645;28;20033;-74
2022/12/10 05:57:09;;;;;;;16.70;14.50;;;;;;;;;;5005860;28;20037;-74
2022/12/10 05:59:35;;;;;;;16.00;12.45;;;;;;;;;;5002008;28;20100;-74
2022/12/10 06:02:01;;;;;;;23.30;14.75;;;;;;;;;;5002254;28;20022;-74
2022/12/10 06:04:27;;;;;;;14.57;12.45;;;;;;;;;;5010949;28;20551;-74
2022/12/10 06:06:56;;;;;;;16.73;12.05;;;;;;;;;;5001406;28;20061;-73
2022/12/10 06:09:24;;;;;;;17.40;12.20;;;;;;;;;;5002316;28;20036;-73
2022/12/10 06:11:50;;;;;;;17.95;13.00;;;;;;;;;;5010217;28;20038;-73
2022/12/10 06:14:16;;;;;;;15.48;13.15;;;;;;;;;;5013821;28;20032;-73
2022/12/10 06:16:42;;;;;;;14.38;12.13;;;;;;;;;;5004072;28;20037;-73
2022/12/10 06:19:08;;;;;;;18.73;12.30;;;;;;;;;;5008367;28;20033;-73
2022/12/10 06:21:34;;;;;;;13.55;10.75;;;;;;;;;;5000744;28;20038;-73
2022/12/10 06:24:05;;;;;;;23.15;11.70;;;;;;;;;;5002482;28;20507;-73
2022/12/10 06:26:30;;;;;;;16.20;12.88;;;;;;;;;;4999795;28;20038;-73
2022/12/10 06:28:56;;;;;;;13.77;10.50;;;;;;;;;;5004432;28;20333;-73
2022/12/10 06:31:23;;;;;;;15.75;12.25;;;;;;;;;;5010250;28;20033;-73
2022/12/10 06:33:49;;;;;;;15.80;12.32;;;;;;;;;;5013760;28;20454;-73
2022/12/10 06:36:18;;;;;;;14.02;11.05;;;;;;;;;;5002293;28;20037;-74
2022/12/10 06:38:46;;;;;;;14.63;10.95;;;;;;;;;;4998147;28;20049;-74
2022/12/10 06:41:16;;;;;;;16.13;12.32;;;;;;;;;;5004771;28;20034;-73
2022/12/10 06:43:44;;;;;;;15.43;11.48;;;;;;;;;;5001555;28;20033;-73
2022/12/10 06:46:16;;;;;;;13.88;12.13;;;;;;;;;;5006786;28;20029;-73
2022/12/10 06:48:42;;;;;;;14.70;11.90;;;;;;;;;;4997135;28;20026;-73
2022/12/10 06:51:09;;;;;;;16.38;11.02;;;;;;;;;;5001436;28;20428;-72
2022/12/10 06:53:40;;;;;;;15.98;12.00;;;;;;;;;;5003450;28;20026;-73
2022/12/10 06:56:07;;;;;;;18.52;13.77;;;;;;;;;;5004445;28;20045;-74
2022/12/10 06:58:35;;;;;;;18.38;14.20;;;;;;;;;;5005254;28;20484;-72
2022/12/10 07:01:04;;;;;;;16.48;13.73;;;;;;;;;;5006127;28;20034;-72
2022/12/10 07:03:35;;;;;;;15.40;12.60;;;;;;;;;;5000427;28;20034;-72
2022/12/10 07:06:02;;;;;;;16.70;14.30;;;;;;;;;;5003724;28;20045;-73
2022/12/10 07:08:30;;;;;;;15.63;10.52;;;;;;;;;;5025984;22;20334;-77
2022/12/10 07:10:58;;;;;;;13.50;11.02;;;;;;;;;;5006352;28;20022;-77
2022/12/10 07:13:28;;;;;;;15.70;14.05;;;;;;;;;;4990448;28;20026;-78
2022/12/10 07:15:56;;;;;;;18.02;13.50;;;;;;;;;;5007824;28;20065;-77
2022/12/10 07:18:25;;;;;;;17.70;11.75;;;;;;;;;;5006051;28;20033;-77
2022/12/10 07:20:51;;;;;;;14.68;11.98;;;;;;;;;;5008848;28;20034;-78
2022/12/10 07:23:19;;;;;;;17.77;11.93;;;;;;;;;;5007823;28;20030;-78
2022/12/10 07:25:47;;;;;;;16.95;12.43;;;;;;;;;;5010968;28;20462;-78
2022/12/10 07:28:13;;;;;;;16.52;12.85;;;;;;;;;;5008962;28;20026;-78
2022/12/10 07:30:39;;;;;;;14.73;12.30;;;;;;;;;;5011263;28;20061;-78
2022/12/10 07:33:05;;;;;;;19.38;13.35;;;;;;;;;;5009693;28;20030;-78
2022/12/10 07:35:33;;;;;;;18.73;13.32;;;;;;;;;;5014497;28;20037;-78
2022/12/10 07:37:59;;;;;;;19.25;14.55;;;;;;;;;;5008754;28;20037;-79
2022/12/10 07:40:25;;;;;;;20.00;14.15;;;;;;;;;;5009375;28;20447;-78
2022/12/10 07:42:53;;;;;;;18.38;12.88;;;;;;;;;;5008577;28;20112;-79
2022/12/10 07:45:19;;;;;;;16.45;11.93;;;;;;;;;;5002788;28;20404;-79
2022/12/10 07:47:47;;;;;;;18.08;14.35;;;;;;;;;;5010746;28;20064;-78
2022/12/10 07:50:13;;;;;;;16.90;12.93;;;;;;;;;;5005416;28;20368;-78
2022/12/10 07:52:39;;;;;;;17.20;14.15;;;;;;;;;;5012633;28;20083;-79
2022/12/10 07:55:09;;;;;;;16.48;12.65;;;;;;;;;;5004390;28;20034;-79
2022/12/10 07:57:35;;;;;;;18.00;13.40;;;;;;;;;;5010957;28;20030;-78
2022/12/10 08:00:03;;;;;;;18.67;14.32;;;;;;;;;;5013943;28;20041;-79
2022/12/10 08:02:37;;;;;;;18.60;14.60;;;;;;;;;;5011193;28;20034;-79
2022/12/10 08:05:03;;;;;;;18.05;13.98;;;;;;;;;;5026851;28;20042;-79
2022/12/10 08:07:29;;;;;;;19.83;13.75;;;;;;;;;;5015698;28;20030;-79
2022/12/10 08:09:55;;;;;;;18.95;14.10;;;;;;;;;;4998964;28;20030;-79
2022/12/10 08:12:25;;;;;;;19.55;13.55;;;;;;;;;;5014263;28;20048;-79
2022/12/10 08:14:54;;;;;;;15.48;12.40;;;;;;;;;;5008151;28;20034;-78
2022/12/10 08:17:22;;;;;;;16.00;12.63;;;;;;;;;;5002202;28;20031;-84
2022/12/10 08:19:50;;;;;;;19.08;13.95;;;;;;;;;;4993122;28;20062;-86
2022/12/10 08:22:16;;;;;;;28.85;15.75;;;;;;;;;;5006876;28;20033;-79
2022/12/10 08:24:42;;;;;;;22.30;14.68;;;;;;;;;;4981693;28;20056;-79
2022/12/10 08:27:10;;;;;;;19.08;14.75;;;;;;;;;;5013190;28;20026;-79
2022/12/10 08:29:41;;;;;;;16.27;13.30;;;;;;;;;;5013972;28;20052;-79
2022/12/10 08:32:07;;;;;;;17.00;13.27;;;;;;;;;;5011155;28;20037;-79
2022/12/10 08:34:32;;;;;;;17.00;13.52;;;;;;;;;;5026908;28;20030;-79
2022/12/10 08:37:01;;;;;;;20.33;14.57;;;;;;;;;;5008208;28;20084;-79
2022/12/10 08:39:27;;;;;;;18.30;13.43;;;;;;;;;;5013408;28;20506;-79
2022/12/10 08:41:55;;;;;;;20.38;15.80;;;;;;;;;;5014288;28;20026;-79
2022/12/10 08:44:23;;;;;;;16.88;13.35;;;;;;;;;;5007959;28;20026;-79
2022/12/10 08:46:51;;;;;;;18.52;14.70;;;;;;;;;;5007379;28;20401;-79
2022/12/10 08:49:19;;;;;;;21.15;16.08;;;;;;;;;;5010380;28;20301;-79
2022/12/10 08:51:48;;;;;;;20.10;13.93;;;;;;;;;;5012152;28;20034;-79
2022/12/10 08:54:18;;;;;;;15.93;12.73;;;;;;;;;;5012798;28;20044;-80
2022/12/10 08:56:46;;;;;;;18.60;15.10;;;;;;;;;;5010740;28;20050;-80
2022/12/10 08:59:12;;;;;;;18.15;14.77;;;;;;;;;;5021402;28;20044;-80
2022/12/10 09:01:40;;;;;;;23.65;18.23;;;;;;;;;;5010282;28;20022;-80
2022/12/10 09:04:09;;;;;;;16.98;13.07;;;;;;;;;;5006405;28;20145;-80
2022/12/10 09:06:35;;;;;;;17.27;13.20;;;;;;;;;;5009337;28;20037;-80
2022/12/10 09:09:01;;;;;;;20.13;14.63;;;;;;;;;;5020442;28;20026;-80
2022/12/10 09:11:31;;;;;;;20.42;14.45;;;;;;;;;;5011781;28;20392;-80
2022/12/10 09:13:57;;;;;;;19.50;14.70;;;;;;;;;;4995903;28;20034;-78
2022/12/10 09:16:33;;;;;;;20.67;14.65;;;;;;;;;;5040371;28;20025;-79
2022/12/10 09:18:59;;;;;;;18.95;12.98;;;;;;;;;;5028220;28;20021;-79
2022/12/10 09:21:30;;;;;;;17.58;12.52;;;;;;;;;;5032966;28;20036;-78
2022/12/10 09:23:58;;;;;;;16.23;12.90;;;;;;;;;;5015962;28;20033;-76
2022/12/10 09:26:26;;;;;;;18.88;14.35;;;;;;;;;;5022922;28;20328;-79
2022/12/10 09:28:55;;;;;;;17.92;13.15;;;;;;;;;;5009539;28;20036;-79
2022/12/10 09:31:23;;;;;;;18.17;14.38;;;;;;;;;;5024644;28;20404;-78
2022/12/10 09:33:50;;;;;;;14.68;13.13;;;;;;;;;;5016038;28;20030;-78
2022/12/10 09:36:19;;;;;;;17.45;14.63;;;;;;;;;;5000663;28;20053;-78
2022/12/10 09:38:51;;;;;;;25.15;14.40;;;;;;;;;;5009539;28;20408;-78
2022/12/10 09:41:48;;;;;;;16.02;12.75;;;;;;;;;;5020329;28;20483;-79
2022/12/10 09:44:33;;;;;;;16.42;12.23;;;;;;;;;;5011613;28;20033;-80
2022/12/10 09:47:01;;;;;;;16.30;11.80;;;;;;;;;;5025792;28;20414;-79
2022/12/10 09:49:47;;;;;;;15.80;13.18;;;;;;;;;;5012213;28;20025;-78
2022/12/10 09:52:18;;;;;;;17.08;12.68;;;;;;;;;;5005313;28;20035;-79
2022/12/10 09:54:53;;;;;;;13.82;11.30;;;;;;;;;;5007956;28;20033;-79
2022/12/10 09:57:26;;;;;;;17.98;11.15;;;;;;;;;;5017674;28;20401;-78
2022/12/10 09:59:56;;;;;;;14.15;11.40;;;;;;;;;;5022826;28;20036;-78
2022/12/10 10:02:26;;;;;;;14.68;10.88;;;;;;;;;;5015036;28;20045;-79
2022/12/10 10:05:08;;;;;;;19.80;13.52;;;;;;;;;;5006532;28;20053;-79
2022/12/10 10:07:47;;;;;;;23.88;16.52;;;;;;;;;;5016014;28;20026;-79
2022/12/10 10:10:27;;;;;;;23.10;16.02;;;;;;;;;;5006727;28;20412;-79
2022/12/10 10:13:17;;;;;;;19.60;16.15;;;;;;;;;;5010924;28;20034;-78
2022/12/10 10:15:47;;;;;;;21.63;17.48;;;;;;;;;;5004991;28;20049;-79
2022/12/10 10:18:23;;;;;;;24.45;17.67;;;;;;;;;;5006307;28;20029;-79
2022/12/10 10:20:51;;;;;;;26.52;20.02;;;;;;;;;;5001549;28;20519;-79
2022/12/10 10:23:17;;;;;;;32.55;19.95;;;;;;;;;;5010657;28;20080;-79
2022/12/10 10:25:45;;;;;;;28.65;20.70;;;;;;;;;;5014490;28;20103;-79
2022/12/10 10:28:12;;;;;;;23.77;17.88;;;;;;;;;;5004445;28;20050;-78
2022/12/10 10:30:41;;;;;;;28.23;22.13;;;;;;;;;;4997553;28;20033;-78
2022/12/10 10:33:08;;;;;;;29.23;23.58;;;;;;;;;;5003575;28;20029;-77
2022/12/10 10:35:57;;;;;;;29.23;21.45;;;;;;;;;;4991142;28;20484;-79
2022/12/10 10:38:29;;;;;;;28.67;19.70;;;;;;;;;;5021894;28;20030;-80
2022/12/10 10:40:57;;;;;;;36.92;22.63;;;;;;;;;;4992193;28;20511;-82
2022/12/10 10:43:25;;;;;;;43.00;29.40;;;;;;;;;;5008418;28;20041;-80
2022/12/10 10:45:56;;;;;;;32.83;23.95;;;;;;;;;;4990754;28;20034;-78
2022/12/10 10:48:26;;;;;;;32.90;21.80;;;;;;;;;;5008397;28;20018;-77
2022/12/10 10:50:55;;;;;;;25.90;19.08;;;;;;;;;;4996826;28;20061;-81
2022/12/10 10:53:34;;;;;;;27.10;20.42;;;;;;;;;;5005305;28;20030;-81
2022/12/10 10:56:09;;;;;;;22.50;19.42;;;;;;;;;;5009639;28;20037;-78
2022/12/10 10:58:36;;;;;;;20.98;17.23;;;;;;;;;;4989151;28;20034;-80
2022/12/10 11:01:05;;;;;;;26.15;19.08;;;;;;;;;;5026910;28;20034;-80
2022/12/10 11:03:44;;;;;;;30.17;22.02;;;;;;;;;;5012845;28;20298;-80
2022/12/10 11:06:11;;;;;;;23.98;17.13;;;;;;;;;;5007719;28;20056;-80
2022/12/10 11:08:40;;;;;;;26.08;18.40;;;;;;;;;;5004110;28;20037;-81
2022/12/10 11:11:11;;;;;;;28.58;21.08;;;;;;;;;;5009864;28;20022;-80
2022/12/10 11:13:41;;;;;;;26.48;18.83;;;;;;;;;;5012427;28;20021;-80
2022/12/10 11:16:24;;;;;;;25.83;18.70;;;;;;;;;;5008059;28;20510;-79
2022/12/10 11:19:04;;;;;;;25.40;21.10;;;;;;;;;;5036884;28;20041;-80
2022/12/10 11:21:33;;;;;;;26.90;20.10;;;;;;;;;;4994852;28;20036;-80
2022/12/10 11:24:00;;;;;;;24.83;19.58;;;;;;;;;;5007799;28;20045;-80
2022/12/10 11:26:38;;;;;;;19.98;16.63;;;;;;;;;;5008151;28;20034;-80
2022/12/10 11:29:24;;;;;;;27.48;18.33;;;;;;;;;;5010249;28;20026;-79
2022/12/10 11:31:50;;;;;;;20.90;17.20;;;;;;;;;;5010705;28;20526;-80
2022/12/10 11:34:19;;;;;;;17.83;13.13;;;;;;;;;;5013344;28;20022;-80
2022/12/10 11:36:51;;;;;;;18.30;14.35;;;;;;;;;;5002536;28;20065;-79
2022/12/10 11:39:17;;;;;;;18.65;12.60;;;;;;;;;;5010887;28;20033;-80
2022/12/10 11:41:57;;;;;;;17.70;14.00;;;;;;;;;;4991308;28;20042;-80
2022/12/10 11:44:29;;;;;;;18.00;12.23;;;;;;;;;;5004658;28;20473;-80
2022/12/10 11:47:00;;;;;;;16.20;11.05;;;;;;;;;;5007781;28;20049;-80
2022/12/10 11:49:39;;;;;;;15.82;13.13;;;;;;;;;;5000291;28;20499;-79
2022/12/10 11:52:26;;;;;;;15.10;12.45;;;;;;;;;;5015287;28;20030;-79
2022/12/10 11:55:15;;;;;;;14.93;11.30;;;;;;;;;;5010785;28;20029;-79
2022/12/10 11:58:03;;;;;;;12.93;10.95;;;;;;;;;;5004591;28;20030;-79
2022/12/10 12:00:41;;;;;;;14.68;10.30;;;;;;;;;;5008930;28;20393;-79
2022/12/10 12:03:15;;;;;;;12.52;8.52;;;;;;;;;;5019824;28;20022;-79
2022/12/10 12:05:43;;;;;;;13.48;9.98;;;;;;;;;;5000143;28;20392;-79
2022/12/10 12:08:35;;;;;;;11.27;8.38;;;;;;;;;;5021939;28;20480;-79
2022/12/10 12:11:01;;;;;;;11.00;7.43;;;;;;;;;;5005901;28;20468;-80
2022/12/10 12:13:41;;;;;;;14.95;8.68;;;;;;;;;;5010375;28;20458;-79
2022/12/10 12:16:11;;;;;;;10.93;7.93;;;;;;;;;;5008372;28;20506;-80
2022/12/10 12:18:40;;;;;;;11.73;8.05;;;;;;;;;;5013335;28;20042;-80
2022/12/10 12:21:09;;;;;;;9.43;7.50;;;;;;;;;;5010373;28;20623;-79
2022/12/10 12:23:55;;;;;;;11.60;8.68;;;;;;;;;;5010339;28;20030;-79
2022/12/10 12:26:28;;;;;;;10.40;8.20;;;;;;;;;;5006028;28;20034;-79
2022/12/10 12:29:04;;;;;;;8.30;7.03;;;;;;;;;;4993971;28;20036;-79
2022/12/10 12:31:41;;;;;;;9.15;6.80;;;;;;;;;;5008180;28;20022;-79
2022/12/10 12:34:26;;;;;;;8.52;7.45;;;;;;;;;;5006085;28;20030;-79
2022/12/10 12:36:51;;;;;;;16.88;7.80;;;;;;;;;;5008315;28;20034;-79
2022/12/10 12:39:17;;;;;;;10.80;7.90;;;;;;;;;;5007166;28;20038;-79
2022/12/10 12:41:43;;;;;;;12.68;8.13;;;;;;;;;;5007967;28;20487;-79
2022/12/10 12:44:33;;;;;;;9.52;7.65;;;;;;;;;;5008181;28;20046;-80
2022/12/10 12:47:10;;;;;;;10.20;7.07;;;;;;;;;;5003194;28;20030;-80
2022/12/10 12:49:41;;;;;;;11.45;7.28;;;;;;;;;;5015236;28;20030;-79
2022/12/10 12:52:19;;;;;;;8.52;7.05;;;;;;;;;;5010056;28;20033;-79
2022/12/10 12:54:45;;;;;;;10.00;7.80;;;;;;;;;;5005334;28;20030;-80
2022/12/10 12:57:14;;;;;;;10.07;7.05;;;;;;;;;;5006746;28;20030;-78
2022/12/10 12:59:48;;;;;;;10.25;6.97;;;;;;;;;;5008637;28;20030;-80
2022/12/10 13:02:33;;;;;;;8.15;6.93;;;;;;;;;;5008036;28;20033;-78
2022/12/10 13:05:00;;;;;;;9.38;6.97;;;;;;;;;;5006533;28;20480;-79
2022/12/10 13:07:27;;;;;;;9.65;5.97;;;;;;;;;;5026237;28;20057;-78
2022/12/10 13:10:05;;;;;;;7.90;6.25;;;;;;;;;;5003362;23;20433;-73
2022/12/10 13:12:44;;;;;;;15.30;9.65;;;;;;;;;;4978360;28;20034;-74
2022/12/10 13:15:20;;;;;;;10.98;7.38;;;;;;;;;;4974942;28;20026;-72
2022/12/10 13:18:06;;;;;;;9.13;7.07;;;;;;;;;;4966395;28;20042;-72
2022/12/10 13:20:36;;;;;;;9.60;6.70;;;;;;;;;;4994197;28;20030;-72
2022/12/10 13:23:21;;;;;;;9.10;6.35;;;;;;;;;;4985820;28;20034;-72
2022/12/10 13:25:54;;;;;;;11.40;7.57;;;;;;;;;;4989390;28;20033;-73
2022/12/10 13:28:26;;;;;;;9.20;6.88;;;;;;;;;;4991792;28;20045;-73
2022/12/10 13:31:16;;;;;;;8.73;6.38;;;;;;;;;;4992064;28;20030;-74
2022/12/10 13:34:02;;;;;;;13.02;8.18;;;;;;;;;;4989128;28;20041;-73
2022/12/10 13:36:36;;;;;;;7.55;6.72;;;;;;;;;;4988944;28;20030;-73
2022/12/10 13:39:05;;;;;;;8.30;6.90;;;;;;;;;;4989574;28;20030;-74
2022/12/10 13:44:31;;;;;;;6.10;5.50;;;;;;;;;;4991481;28;20269;-73
2022/12/10 13:47:05;;;;;;;5.97;5.43;;;;;;;;;;4989873;28;20045;-73
2022/12/10 13:49:50;;;;;;;9.13;7.38;;;;;;;;;;4991906;28;20034;-73
2022/12/10 13:52:19;;;;;;;9.32;7.43;;;;;;;;;;4990990;28;20037;-73
2022/12/10 13:54:50;;;;;;;7.68;6.38;;;;;;;;;;4989220;28;20041;-73
2022/12/10 13:57:28;;;;;;;7.53;6.22;;;;;;;;;;4989042;28;20041;-73
2022/12/10 14:00:14;;;;;;;10.73;8.32;;;;;;;;;;4987073;28;20042;-73
2022/12/10 14:03:14;;;;;;;11.05;6.93;;;;;;;;;;4990770;28;20038;-73
2022/12/10 14:05:47;;;;;;;7.53;5.63;;;;;;;;;;4980461;28;20043;-74
2022/12/10 14:08:19;;;;;;;9.32;7.40;;;;;;;;;;4978774;28;20769;-74
2022/12/10 14:10:45;;;;;;;7.28;6.20;;;;;;;;;;4991282;28;20057;-74
2022/12/10 14:13:12;;;;;;;12.90;9.10;;;;;;;;;;4992374;28;20030;-74
2022/12/10 14:15:39;;;;;;;10.75;7.47;;;;;;;;;;4990038;28;20097;-74
2022/12/10 14:18:11;;;;;;;7.72;5.63;;;;;;;;;;4987867;28;20034;-74
2022/12/10 14:20:40;;;;;;;10.90;6.70;;;;;;;;;;4989701;28;20034;-73
2022/12/10 14:23:33;;;;;;;7.85;5.25;;;;;;;;;;4996978;28;20400;-73
2022/12/10 14:26:05;;;;;;;10.32;8.45;;;;;;;;;;4988661;28;20041;-73
2022/12/10 14:28:33;;;;;;;10.35;7.97;;;;;;;;;;4994812;28;20045;-73
2022/12/10 14:31:05;;;;;;;16.88;9.23;;;;;;;;;;4989916;28;20030;-73
2022/12/10 14:33:31;;;;;;;14.50;7.50;;;;;;;;;;4984100;28;20027;-73
2022/12/10 14:36:00;;;;;;;7.68;6.50;;;;;;;;;;4984439;28;20038;-73
2022/12/10 14:38:34;;;;;;;9.73;6.80;;;;;;;;;;4990508;28;20027;-73
2022/12/10 14:41:01;;;;;;;12.77;8.38;;;;;;;;;;4981875;28;20045;-74
2022/12/10 14:43:30;;;;;;;12.15;8.05;;;;;;;;;;4987841;28;20037;-74
2022/12/10 14:45:57;;;;;;;13.25;8.38;;;;;;;;;;4988486;28;20027;-75
2022/12/10 14:48:26;;;;;;;19.90;9.75;;;;;;;;;;4983833;28;20026;-73
2022/12/10 14:50:56;;;;;;;12.65;10.27;;;;;;;;;;4986126;28;20428;-73
2022/12/10 14:53:25;;;;;;;10.05;8.23;;;;;;;;;;4991042;28;20026;-73
2022/12/10 14:55:56;;;;;;;13.43;8.88;;;;;;;;;;4986919;28;20627;-73